Time;durP1;ratioP1;P1;durP2;ratioP2;P2;SDS_P1;SDS_P2;PMS_P1;PMS_P2;Temp;Humidity;BMP_temperature;BMP_pressure;BME280_temperature;BME280_humidity;BME280_pressure;Samples;Min_cycle;Max_cycle;Signal;HPM_P1;HPM_P2
2023/04/15 00:02:17;;;;;;;13.37;4.00;;;8.00;58.70;;;11.01;41.20;96626.13;5060347;28;20048;-46
2023/04/15 00:04:46;;;;;;;11.97;3.37;;;8.00;59.20;;;11.01;41.51;96624.31;5059030;28;20045;-47
2023/04/15 00:07:15;;;;;;;3.40;2.30;;;8.00;58.70;;;10.99;42.03;96623.69;5060221;28;20045;-44
2023/04/15 00:09:43;;;;;;;6.13;3.03;;;7.90;58.80;;;10.98;41.73;96623.88;5063845;28;20413;-44
2023/04/15 00:12:12;;;;;;;5.90;3.40;;;7.90;59.00;;;10.98;41.43;96623.88;5065441;28;20524;-44
2023/04/15 00:14:39;;;;;;;8.43;3.80;;;7.90;58.90;;;10.97;41.34;96624.88;5063330;28;20063;-45
2023/04/15 00:17:07;;;;;;;8.43;3.67;;;7.80;58.80;;;10.93;41.38;96628.94;5061942;28;20045;-43
2023/04/15 00:19:35;;;;;;;8.63;3.87;;;7.80;59.00;;;10.91;41.45;96625.63;5061523;28;20049;-45
2023/04/15 00:22:03;;;;;;;7.30;4.67;;;7.70;58.90;;;10.88;41.45;96626.03;5065424;28;20052;-44
2023/04/15 00:24:31;;;;;;;6.77;4.00;;;7.70;59.20;;;10.88;41.65;96628.69;5064387;28;20414;-45
2023/04/15 00:26:59;;;;;;;11.00;4.47;;;7.70;59.40;;;10.83;41.48;96626.56;5060159;28;20072;-44
2023/04/15 00:29:30;;;;;;;14.23;6.40;;;7.70;59.70;;;10.76;41.85;96630.97;5060594;28;20032;-43
2023/04/15 00:31:58;;;;;;;13.57;5.83;;;7.60;60.40;;;10.72;42.11;96630.56;5051844;28;20053;-46
2023/04/15 00:34:26;;;;;;;12.03;5.47;;;7.50;60.40;;;10.65;42.03;96621.66;5058446;28;20410;-44
2023/04/15 00:36:54;;;;;;;8.80;5.13;;;7.40;60.70;;;10.59;42.22;96617.09;5065448;28;20067;-47
2023/04/15 00:39:22;;;;;;;12.63;6.00;;;7.40;61.20;;;10.53;42.16;96613.31;5066153;28;20418;-44
2023/04/15 00:41:49;;;;;;;11.40;6.33;;;7.30;61.20;;;10.47;42.24;96616.75;5062538;28;20049;-45
2023/04/15 00:44:17;;;;;;;11.50;4.70;;;7.20;61.40;;;10.46;42.40;96615.06;5046352;28;20041;-42
2023/04/15 00:46:47;;;;;;;6.37;3.20;;;7.20;61.30;;;10.44;42.32;96614.44;5061354;28;20051;-44
2023/04/15 00:49:16;;;;;;;7.93;4.00;;;7.20;61.50;;;10.40;42.27;96618.47;5040357;28;20050;-44
2023/04/15 00:51:45;;;;;;;8.80;3.37;;;7.20;61.50;;;10.37;42.29;96621.50;5026393;28;20502;-46
2023/04/15 00:54:12;;;;;;;5.73;3.00;;;7.10;61.80;;;10.29;42.75;96622.38;5046133;28;20498;-44
2023/04/15 00:56:41;;;;;;;19.90;9.50;;;7.10;62.50;;;10.18;42.68;96613.06;5061762;28;20435;-43
2023/04/15 00:59:09;;;;;;;26.87;12.17;;;6.90;62.90;;;10.13;43.03;96625.25;5051441;28;20048;-43
2023/04/15 01:01:37;;;;;;;25.00;12.17;;;6.80;63.10;;;10.07;42.95;96624.16;5059942;28;20049;-44
2023/04/15 01:04:05;;;;;;;22.53;10.30;;;6.80;63.30;;;10.08;43.15;96627.63;5062675;28;20041;-45
2023/04/15 01:06:33;;;;;;;29.00;12.23;;;6.80;63.20;;;10.07;42.92;96628.66;5064133;28;20037;-44
2023/04/15 01:09:01;;;;;;;16.53;8.33;;;6.80;62.90;;;10.05;42.98;96626.16;5059734;28;20037;-45
2023/04/15 01:11:33;;;;;;;18.03;7.03;;;6.80;63.00;;;10.02;43.02;96627.38;5056533;28;20423;-45
2023/04/15 01:14:01;;;;;;;8.83;3.80;;;6.70;64.00;;;10.02;43.22;96623.84;5064883;28;20050;-44
2023/04/15 01:16:29;;;;;;;10.43;4.13;;;6.70;63.20;;;10.01;43.10;96622.22;5056004;28;20057;-46
2023/04/15 01:18:56;;;;;;;7.37;3.37;;;6.70;62.90;;;10.01;42.79;96620.38;5045186;28;20429;-46
2023/04/15 01:21:25;;;;;;;5.47;3.20;;;6.80;62.70;;;10.02;42.87;96622.03;5062901;28;20040;-44
2023/04/15 01:23:55;;;;;;;6.73;3.70;;;6.80;62.50;;;10.00;42.83;96613.44;5059608;28;20049;-46
2023/04/15 01:26:23;;;;;;;9.77;3.87;;;6.80;62.80;;;9.98;42.73;96623.41;5042404;28;20391;-44
2023/04/15 01:28:51;;;;;;;8.80;3.67;;;6.70;63.00;;;9.93;43.26;96620.47;5062137;28;20490;-46
2023/04/15 01:31:20;;;;;;;5.97;3.33;;;6.70;63.10;;;9.90;43.08;96620.81;5046375;28;20048;-44
2023/04/15 01:33:48;;;;;;;6.93;2.80;;;6.70;63.60;;;9.85;43.17;96612.59;5059674;28;20059;-44
2023/04/15 01:36:16;;;;;;;7.23;3.03;;;6.60;63.50;;;9.82;43.22;96612.94;5058591;28;20051;-44
2023/04/15 01:38:43;;;;;;;5.27;2.73;;;6.60;63.50;;;9.79;43.28;96614.13;5061110;28;20044;-46
2023/04/15 01:41:13;;;;;;;4.63;2.30;;;6.50;63.50;;;9.77;43.07;96618.81;5062459;28;20059;-46
2023/04/15 01:43:41;;;;;;;6.87;3.03;;;6.50;63.40;;;9.75;43.08;96612.00;5060762;28;20131;-44
2023/04/15 01:46:09;;;;;;;5.37;3.07;;;6.50;63.20;;;9.73;43.06;96614.88;5058642;28;20422;-45
2023/04/15 01:48:36;;;;;;;7.87;3.40;;;6.50;63.10;;;9.69;43.05;96610.06;5059170;28;20048;-46
2023/04/15 01:51:04;;;;;;;5.67;2.77;;;6.50;63.30;;;9.66;43.11;96613.94;5063598;28;20516;-44
2023/04/15 01:53:33;;;;;;;6.23;2.87;;;6.50;64.00;;;9.65;43.15;96617.56;5061240;28;20053;-45
2023/04/15 01:56:02;;;;;;;6.77;2.63;;;6.40;63.10;;;9.61;43.25;96609.13;5055166;28;20045;-44
2023/04/15 01:58:30;;;;;;;6.63;3.53;;;6.40;63.20;;;9.60;43.13;96614.66;5056208;28;20040;-44
2023/04/15 02:00:57;;;;;;;3.87;2.40;;;6.40;63.10;;;9.56;43.68;96618.69;5061624;28;20040;-44
2023/04/15 02:03:25;;;;;;;5.60;2.93;;;6.30;64.00;;;9.51;43.78;96616.53;5063133;28;20040;-45
2023/04/15 02:05:53;;;;;;;6.37;2.50;;;6.30;64.00;;;9.51;43.57;96607.75;5060143;28;20048;-47
2023/04/15 02:08:21;;;;;;;4.40;2.50;;;6.30;63.90;;;9.50;43.75;96612.25;5058575;28;20044;-44
2023/04/15 02:10:48;;;;;;;4.80;2.60;;;6.30;63.90;;;9.49;43.69;96610.59;5060336;28;20045;-46
2023/04/15 02:13:16;;;;;;;3.93;2.33;;;6.30;64.00;;;9.49;43.65;96607.09;5061380;28;20059;-45
2023/04/15 02:15:51;;;;;;;6.20;3.00;;;6.30;63.90;;;9.46;44.05;96603.81;5059821;28;20517;-44
2023/04/15 02:18:19;;;;;;;5.53;2.90;;;6.30;64.20;;;9.46;43.56;96606.47;5058235;28;20067;-44
2023/04/15 02:20:47;;;;;;;3.47;2.13;;;6.30;64.00;;;9.46;43.77;96603.81;5066500;28;20295;-44
2023/04/15 02:23:15;;;;;;;4.10;2.50;;;6.20;64.90;;;9.44;43.88;96602.31;5061829;28;20505;-45
2023/04/15 02:25:44;;;;;;;4.97;2.60;;;6.20;64.30;;;9.39;43.91;96617.97;5059652;28;20135;-46
2023/04/15 02:28:21;;;;;;;5.27;2.57;;;6.10;64.60;;;9.37;43.75;96602.22;5059541;28;20485;-45
2023/04/15 02:30:52;;;;;;;4.07;2.97;;;6.10;64.40;;;9.37;44.05;96601.41;5059213;28;20045;-46
2023/04/15 02:33:20;;;;;;;4.77;3.17;;;6.10;64.80;;;9.30;44.04;96598.63;5061259;28;20117;-44
2023/04/15 02:35:48;;;;;;;3.97;2.60;;;6.00;65.00;;;9.29;44.07;96596.16;5059439;28;20048;-44
2023/04/15 02:38:16;;;;;;;3.03;2.40;;;6.00;64.90;;;9.25;44.16;96601.81;5057143;28;20430;-44
2023/04/15 02:40:44;;;;;;;5.30;2.17;;;6.00;65.20;;;9.21;44.47;96594.41;5041060;28;20418;-46
2023/04/15 02:43:12;;;;;;;7.80;3.00;;;6.00;65.50;;;9.20;44.50;96596.22;5060634;28;20055;-44
2023/04/15 02:45:40;;;;;;;4.87;2.90;;;6.10;65.90;;;9.18;44.41;96592.91;5060508;28;20048;-45
2023/04/15 02:48:08;;;;;;;4.43;2.63;;;5.90;66.00;;;9.18;44.64;96589.44;5058075;28;20041;-44
2023/04/15 02:50:38;;;;;;;4.40;2.17;;;5.90;65.80;;;9.16;44.61;96589.59;5057577;28;20049;-44
2023/04/15 02:53:07;;;;;;;5.83;2.47;;;5.90;66.00;;;9.17;44.72;96585.97;5034697;28;20529;-44
2023/04/15 02:55:34;;;;;;;4.97;2.70;;;6.00;66.20;;;9.17;44.74;96585.97;5058004;28;20449;-43
2023/04/15 02:58:02;;;;;;;5.47;3.13;;;6.00;66.20;;;9.17;44.92;96593.06;5061268;28;20044;-43
2023/04/15 03:00:30;;;;;;;4.87;2.90;;;6.00;66.20;;;9.18;44.88;96589.44;5061174;28;20040;-46
2023/04/15 03:03:05;;;;;;;4.07;2.60;;;6.00;66.40;;;9.18;44.79;96581.47;5049673;28;20052;-45
2023/04/15 03:05:34;;;;;;;3.13;2.37;;;6.10;66.40;;;9.21;44.59;96581.13;5022361;28;20041;-44
2023/04/15 03:08:04;;;;;;;5.03;2.70;;;6.10;65.50;;;9.23;44.49;96587.91;5049697;28;20056;-43
2023/04/15 03:10:31;;;;;;;6.13;2.57;;;6.10;65.30;;;9.23;44.50;96585.25;5057558;28;20044;-43
2023/04/15 03:13:01;;;;;;;6.27;2.53;;;6.20;65.60;;;9.22;44.57;96593.38;5043570;28;20049;-44
2023/04/15 03:15:28;;;;;;;4.97;2.80;;;6.00;65.60;;;9.20;44.67;96592.72;5061156;28;20040;-44
2023/04/15 03:17:56;;;;;;;5.07;3.00;;;6.00;65.70;;;9.15;44.82;96592.44;5058569;28;20049;-45
2023/04/15 03:20:24;;;;;;;3.90;2.60;;;5.90;66.20;;;9.14;44.98;96599.56;5058733;28;20486;-43
2023/04/15 03:22:51;;;;;;;4.73;2.60;;;5.90;66.60;;;9.12;44.65;96596.28;5060741;28;20441;-45
2023/04/15 03:25:21;;;;;;;5.00;2.53;;;5.90;66.60;;;9.11;44.87;96591.13;5060173;28;20051;-43
2023/04/15 03:27:49;;;;;;;4.20;2.67;;;5.90;66.90;;;9.07;44.94;96590.66;5059292;28;20056;-45
2023/04/15 03:30:17;;;;;;;7.20;2.80;;;5.90;66.80;;;9.05;44.96;96590.00;5057644;28;20045;-45
2023/04/15 03:32:45;;;;;;;4.37;2.80;;;5.80;66.60;;;9.07;44.83;96596.81;5070086;28;20069;-43
2023/04/15 03:35:13;;;;;;;5.13;3.03;;;5.80;66.40;;;9.07;44.85;96596.81;5059274;28;20044;-45
2023/04/15 03:37:40;;;;;;;6.03;3.03;;;5.80;66.60;;;9.09;45.00;96593.16;5059792;28;20056;-44
2023/04/15 03:40:08;;;;;;;8.70;4.63;;;5.90;66.90;;;9.05;44.90;96592.66;5037527;28;20041;-44
2023/04/15 03:42:36;;;;;;;4.83;3.47;;;5.90;66.60;;;9.06;45.24;96589.84;5057662;28;20056;-44
2023/04/15 03:45:04;;;;;;;5.57;3.67;;;5.90;66.90;;;9.06;45.11;96595.16;5065234;28;20044;-46
2023/04/15 03:47:32;;;;;;;5.57;3.67;;;5.90;66.70;;;9.01;45.34;96592.19;5065836;28;20044;-44
2023/04/15 03:50:00;;;;;;;9.77;3.87;;;5.90;67.50;;;9.02;45.26;96596.50;5061437;28;20060;-43
2023/04/15 03:52:27;;;;;;;12.20;3.80;;;5.90;67.50;;;8.99;45.36;96588.06;5062473;28;20044;-43
2023/04/15 03:54:55;;;;;;;9.47;4.80;;;5.80;67.80;;;8.92;45.53;96587.97;5063699;28;20244;-45
2023/04/15 03:57:22;;;;;;;5.70;3.57;;;5.70;68.50;;;8.86;45.55;96592.16;5065831;28;20045;-45
2023/04/15 03:59:50;;;;;;;6.10;3.83;;;5.60;68.70;;;8.86;45.46;96581.53;5064296;28;20421;-44
2023/04/15 04:02:18;;;;;;;5.83;4.07;;;5.60;68.40;;;8.86;45.38;96581.53;5060626;28;20052;-45
2023/04/15 04:04:45;;;;;;;9.10;4.03;;;5.60;68.40;;;8.86;45.43;96580.72;5062237;28;20049;-46
2023/04/15 04:07:17;;;;;;;5.70;3.30;;;5.60;68.40;;;8.89;45.71;96584.84;5064030;28;20425;-44
2023/04/15 04:09:44;;;;;;;5.47;2.97;;;5.70;68.60;;;8.90;45.52;96587.31;5063786;28;20048;-47
2023/04/15 04:12:14;;;;;;;4.23;2.30;;;5.70;67.60;;;8.87;45.37;96592.97;5062057;28;20037;-44
2023/04/15 04:14:41;;;;;;;5.80;3.47;;;5.70;67.60;;;8.81;45.47;96599.81;5061310;28;20048;-44
2023/04/15 04:17:09;;;;;;;4.50;2.87;;;5.60;67.70;;;8.81;45.51;96597.16;5065392;28;20554;-43
2023/04/15 04:19:38;;;;;;;5.17;2.77;;;5.60;67.90;;;8.82;45.41;96604.13;5065693;28;20051;-45
2023/04/15 04:22:06;;;;;;;5.33;3.57;;;5.70;68.10;;;8.85;45.57;96605.59;5061842;28;20075;-45
2023/04/15 04:24:33;;;;;;;9.03;4.27;;;5.70;67.70;;;8.85;45.22;96600.28;5061325;28;20041;-44
2023/04/15 04:27:02;;;;;;;6.93;4.37;;;5.60;67.40;;;8.83;45.34;96596.97;5064175;28;20040;-44
2023/04/15 04:29:29;;;;;;;8.20;4.37;;;5.60;67.50;;;8.80;45.32;96607.94;5065349;28;20037;-43
2023/04/15 04:31:57;;;;;;;8.07;4.47;;;5.60;67.60;;;8.80;45.49;96602.63;5063051;28;20052;-45
2023/04/15 04:34:24;;;;;;;6.03;4.03;;;5.50;67.60;;;8.79;45.51;96601.00;5061432;28;20037;-44
2023/04/15 04:36:52;;;;;;;8.17;5.00;;;5.60;68.00;;;8.76;45.29;96607.47;5062850;28;20060;-45
2023/04/15 04:39:20;;;;;;;9.47;4.30;;;5.50;67.80;;;8.75;45.52;96613.78;5064401;28;20040;-43
2023/04/15 04:41:47;;;;;;;7.77;4.80;;;5.50;67.80;;;8.72;45.23;96610.66;5063787;28;20064;-44
2023/04/15 04:44:15;;;;;;;7.60;4.37;;;5.40;67.70;;;8.67;45.34;96608.53;5061205;28;20426;-43
2023/04/15 04:46:43;;;;;;;10.17;5.30;;;5.40;67.90;;;8.64;45.47;96609.69;5061448;28;20048;-44
2023/04/15 04:49:10;;;;;;;8.50;4.20;;;5.40;67.90;;;8.62;45.41;96610.84;5053603;28;20052;-44
2023/04/15 04:51:38;;;;;;;8.37;4.30;;;5.40;68.00;;;8.59;45.86;96617.34;5061363;28;20049;-45
2023/04/15 04:54:06;;;;;;;6.70;3.70;;;5.30;68.60;;;8.58;45.65;96620.19;5062371;28;20040;-44
2023/04/15 04:56:33;;;;;;;8.60;4.17;;;5.30;68.40;;;8.60;45.81;96621.63;5065027;28;20286;-45
2023/04/15 04:59:01;;;;;;;6.47;3.40;;;5.30;68.30;;;8.60;45.60;96623.47;5062254;28;20055;-43
2023/04/15 05:01:33;;;;;;;5.37;3.50;;;5.40;67.90;;;8.60;45.71;96621.63;5061287;28;20049;-44
2023/04/15 05:04:11;;;;;;;6.93;4.23;;;5.40;68.00;;;8.59;45.54;96625.31;5062067;28;20049;-43
2023/04/15 05:06:39;;;;;;;7.50;4.07;;;5.40;68.20;;;8.57;45.62;96624.66;5064219;28;20039;-44
2023/04/15 05:09:07;;;;;;;8.30;4.67;;;5.40;68.40;;;8.55;45.76;96624.00;5061167;28;20044;-44
2023/04/15 05:11:34;;;;;;;5.67;3.83;;;5.30;68.30;;;8.57;45.73;96634.41;5058892;28;20037;-43
2023/04/15 05:14:02;;;;;;;7.03;4.60;;;5.40;68.50;;;8.59;45.77;96627.97;5063064;28;20494;-43
2023/04/15 05:16:29;;;;;;;9.77;4.47;;;5.40;68.40;;;8.58;45.63;96630.78;5064088;28;20040;-43
2023/04/15 05:18:57;;;;;;;8.23;4.07;;;5.40;68.50;;;8.59;45.75;96640.41;5062508;28;20048;-43
2023/04/15 05:21:25;;;;;;;8.43;4.03;;;5.40;68.70;;;8.59;46.00;96632.44;5060983;28;20414;-45
2023/04/15 05:23:52;;;;;;;7.03;4.37;;;5.40;68.50;;;8.60;45.86;96640.22;5061506;28;20088;-43
2023/04/15 05:26:20;;;;;;;7.77;4.10;;;5.40;68.60;;;8.59;45.66;96635.94;5062116;28;20045;-43
2023/04/15 05:28:49;;;;;;;9.80;5.53;;;5.40;68.50;;;8.62;45.49;96629.44;5063433;28;20501;-43
2023/04/15 05:31:16;;;;;;;10.03;4.10;;;5.40;68.70;;;8.62;45.67;96621.47;5060644;28;20045;-44
2023/04/15 05:33:44;;;;;;;13.80;4.80;;;5.40;68.60;;;8.69;45.92;96629.59;5060368;28;20037;-43
2023/04/15 05:36:12;;;;;;;15.03;8.83;;;5.40;68.50;;;8.72;46.21;96631.88;5050867;28;20517;-44
2023/04/15 05:38:40;;;;;;;25.20;12.57;;;5.50;68.60;;;8.75;46.05;96634.19;5057251;28;20418;-42
2023/04/15 05:41:08;;;;;;;22.13;11.97;;;5.60;68.40;;;8.78;45.95;96631.16;5063047;28;20044;-43
2023/04/15 05:43:35;;;;;;;14.97;7.73;;;5.70;68.60;;;8.83;46.24;96631.47;5063601;28;20052;-45
2023/04/15 05:46:03;;;;;;;7.33;4.47;;;5.80;68.70;;;8.90;46.14;96627.13;5061113;28;20048;-44
2023/04/15 05:48:30;;;;;;;7.40;3.80;;;5.80;68.60;;;8.99;46.15;96633.19;5059948;28;20060;-43
2023/04/15 05:50:58;;;;;;;6.37;3.20;;;5.90;68.50;;;9.06;46.24;96629.66;5062228;28;20052;-44
2023/04/15 05:53:25;;;;;;;6.73;3.70;;;6.00;68.10;;;9.12;46.06;96627.31;5063470;28;20036;-42
2023/04/15 05:55:53;;;;;;;6.87;2.90;;;6.10;68.20;;;9.18;46.29;96629.25;5061104;28;20049;-44
2023/04/15 05:58:20;;;;;;;7.27;3.60;;;6.10;68.10;;;9.25;45.98;96631.03;5060099;28;20100;-46
2023/04/15 06:00:48;;;;;;;6.87;2.37;;;6.20;67.80;;;9.31;46.22;96631.34;5059968;28;20422;-42
2023/04/15 06:03:15;;;;;;;5.20;2.80;;;6.30;68.10;;;9.37;45.99;96634.09;5045185;28;20057;-43
2023/04/15 06:05:43;;;;;;;5.17;2.43;;;6.30;67.90;;;9.44;46.22;96636.84;5062522;28;20053;-42
2023/04/15 06:08:11;;;;;;;7.70;4.00;;;6.40;67.80;;;9.53;45.84;96632.31;5059433;28;20040;-43
2023/04/15 06:10:39;;;;;;;8.07;3.67;;;6.50;67.40;;;9.62;45.71;96637.38;5059790;28;20052;-43
2023/04/15 06:13:07;;;;;;;7.17;2.50;;;6.60;66.50;;;9.72;45.36;96638.97;5062076;28;20045;-43
2023/04/15 06:15:34;;;;;;;3.63;2.67;;;6.70;65.90;;;9.78;45.48;96636.41;5044552;28;20411;-44
2023/04/15 06:18:02;;;;;;;3.87;2.27;;;6.80;65.10;;;9.85;45.41;96641.81;5061057;28;20041;-45
2023/04/15 06:20:29;;;;;;;4.73;2.37;;;6.90;64.80;;;9.91;44.89;96656.22;5059690;28;20426;-43
2023/04/15 06:22:57;;;;;;;4.50;2.30;;;6.90;64.40;;;9.95;45.06;96647.69;5060517;28;20063;-44
2023/04/15 06:25:25;;;;;;;3.80;2.37;;;7.00;64.10;;;10.03;44.64;96658.25;5061036;28;20048;-46
2023/04/15 06:27:52;;;;;;;4.20;2.70;;;7.00;63.80;;;10.08;44.79;96659.53;5062263;28;20045;-42
2023/04/15 06:30:20;;;;;;;5.87;2.43;;;7.00;63.50;;;10.13;44.63;96655.31;5059665;28;20517;-45
2023/04/15 06:32:50;;;;;;;4.50;2.63;;;7.10;63.70;;;10.19;44.61;96664.41;5059711;28;20041;-45
2023/04/15 06:35:18;;;;;;;3.87;3.00;;;7.20;63.60;;;10.25;44.61;96663.66;5057204;28;20040;-44
2023/04/15 06:37:45;;;;;;;5.90;2.37;;;7.20;63.00;;;10.26;44.29;96657.34;5062905;28;20049;-46
2023/04/15 06:40:13;;;;;;;5.40;2.57;;;7.30;63.60;;;10.31;44.39;96664.81;5058035;28;20048;-45
2023/04/15 06:42:41;;;;;;;5.60;2.03;;;7.30;62.60;;;10.35;43.76;96668.75;5059368;28;20060;-46
2023/04/15 06:45:09;;;;;;;5.10;2.30;;;7.40;62.40;;;10.39;44.22;96665.56;5064239;28;20052;-44
2023/04/15 06:47:36;;;;;;;8.67;2.53;;;7.40;61.90;;;10.43;43.98;96664.19;5057844;28;20048;-43
2023/04/15 06:50:05;;;;;;;5.47;2.27;;;7.40;61.80;;;10.46;44.25;96670.94;5059786;28;20052;-43
2023/04/15 06:52:32;;;;;;;4.10;2.77;;;7.40;62.10;;;10.53;44.16;96671.06;5062591;28;20043;-44
2023/04/15 06:55:01;;;;;;;7.70;2.60;;;7.50;62.20;;;10.60;43.88;96667.47;5060805;28;20052;-46
2023/04/15 06:57:29;;;;;;;3.40;1.90;;;7.60;62.00;;;10.69;43.70;96670.03;5059133;28;20040;-48
2023/04/15 06:59:56;;;;;;;4.70;3.00;;;7.70;61.70;;;10.76;44.19;96674.44;5059695;28;20041;-46
2023/04/15 07:02:24;;;;;;;6.63;4.13;;;7.80;62.00;;;10.85;44.70;96669.81;5051441;28;20453;-47
2023/04/15 07:04:52;;;;;;;6.90;3.43;;;7.80;64.40;;;10.94;44.90;96671.34;5056619;28;20520;-45
2023/04/15 07:07:20;;;;;;;8.70;3.67;;;8.00;65.40;;;11.01;44.50;96666.94;5057706;28;20521;-45
2023/04/15 07:09:47;;;;;;;6.30;2.87;;;8.00;63.80;;;10.99;44.11;96671.63;5058801;28;20044;-44
2023/04/15 07:12:15;;;;;;;3.83;2.47;;;8.00;62.00;;;10.98;43.71;96667.31;5062008;28;20490;-45
2023/04/15 07:14:42;;;;;;;3.87;2.63;;;8.00;61.20;;;11.03;44.09;96667.56;5062097;28;20041;-44
2023/04/15 07:17:11;;;;;;;4.17;3.27;;;8.10;61.70;;;11.11;45.53;96677.28;5061813;28;20049;-44
2023/04/15 07:19:38;;;;;;;5.60;3.97;;;8.20;66.00;;;11.18;45.96;96674.69;5062994;28;20049;-45
2023/04/15 07:22:06;;;;;;;11.87;5.53;;;8.30;67.50;;;11.23;46.22;96672.28;5064971;28;20053;-44
2023/04/15 07:24:34;;;;;;;5.20;3.80;;;8.30;67.80;;;11.31;45.92;96669.50;5065881;28;20391;-44
2023/04/15 07:27:03;;;;;;;6.43;4.10;;;8.40;68.80;;;11.36;46.46;96672.44;5064966;28;20071;-46
2023/04/15 07:29:30;;;;;;;5.43;3.87;;;8.40;69.10;;;11.41;46.27;96677.19;5061600;28;20040;-45
2023/04/15 07:31:58;;;;;;;5.77;3.60;;;8.40;68.70;;;11.40;46.60;96679.03;5063420;28;20055;-44
2023/04/15 07:34:25;;;;;;;6.60;3.80;;;8.50;68.50;;;11.41;46.27;96672.66;5065950;28;20036;-45
2023/04/15 07:36:53;;;;;;;7.70;4.43;;;8.50;68.80;;;11.42;46.32;96674.31;5064628;28;20040;-47
2023/04/15 07:39:21;;;;;;;8.07;4.27;;;8.50;69.10;;;11.43;46.32;96665.31;5061920;28;20036;-46
2023/04/15 07:41:48;;;;;;;5.23;3.57;;;8.50;69.40;;;11.50;46.69;96665.38;5062146;28;20135;-43
2023/04/15 07:44:16;;;;;;;7.27;4.60;;;8.50;69.50;;;11.59;46.51;96663.41;5065096;28;20045;-44
2023/04/15 07:46:43;;;;;;;6.07;2.83;;;8.60;69.40;;;11.63;45.33;96662.84;5065926;28;20060;-45
2023/04/15 07:49:12;;;;;;;5.57;2.70;;;8.60;65.60;;;11.61;44.81;96658.69;5063374;28;20501;-45
2023/04/15 07:51:39;;;;;;;4.83;3.50;;;8.70;64.20;;;11.68;45.18;96659.59;5062377;28;20052;-45
2023/04/15 07:54:07;;;;;;;3.20;2.43;;;8.90;64.40;;;11.86;44.73;96667.09;5063600;28;20040;-46
2023/04/15 07:56:35;;;;;;;4.50;2.07;;;9.00;62.70;;;11.93;43.72;96664.53;5065628;28;20059;-45
2023/04/15 07:59:03;;;;;;;4.07;2.37;;;9.10;59.40;;;12.06;43.25;96661.97;5064536;28;20060;-47
2023/04/15 08:01:34;;;;;;;6.37;2.13;;;9.30;60.20;;;12.18;43.39;96663.06;5061903;28;20053;-46
2023/04/15 08:04:02;;;;;;;3.50;2.53;;;9.30;59.50;;;12.28;43.29;96665.41;5062859;28;20056;-46
2023/04/15 08:06:30;;;;;;;3.93;1.80;;;9.40;58.80;;;12.36;42.97;96662.56;5065576;28;20426;-45
2023/04/15 08:08:57;;;;;;;5.07;2.77;;;9.50;58.90;;;12.47;42.43;96668.41;5066405;28;20045;-45
2023/04/15 08:11:26;;;;;;;7.00;2.77;;;9.60;58.50;;;12.54;42.45;96669.22;5060622;28;20498;-45
2023/04/15 08:13:54;;;;;;;2.83;2.17;;;9.70;58.50;;;12.59;42.60;96658.78;5060744;28;20067;-45
2023/04/15 08:16:24;;;;;;;4.87;2.77;;;9.80;58.40;;;12.70;42.16;96655.56;5053170;28;20037;-44
2023/04/15 08:18:53;;;;;;;4.80;2.23;;;9.90;58.50;;;12.86;42.01;96664.25;5061853;28;20049;-45
2023/04/15 08:21:21;;;;;;;3.37;2.17;;;10.00;58.20;;;12.96;42.12;96670.03;5061896;28;20041;-45
2023/04/15 08:23:51;;;;;;;5.13;2.27;;;10.10;56.60;;;13.03;41.61;96675.41;5061781;28;20049;-44
2023/04/15 08:26:20;;;;;;;5.57;2.33;;;10.20;57.70;;;13.12;41.76;96674.19;5062961;28;20067;-45
2023/04/15 08:28:48;;;;;;;5.00;2.40;;;10.30;57.20;;;13.19;41.47;96665.19;5059946;28;20044;-46
2023/04/15 08:31:17;;;;;;;4.93;3.07;;;10.30;57.00;;;13.25;41.12;96671.56;5053336;28;20049;-47
2023/04/15 08:33:45;;;;;;;4.50;2.50;;;10.40;56.40;;;13.27;41.18;96663.34;5061438;28;20041;-45
2023/04/15 08:36:13;;;;;;;4.47;2.70;;;10.40;56.40;;;13.27;41.52;96666.03;5063486;28;20045;-43
2023/04/15 08:38:41;;;;;;;4.30;2.27;;;10.40;56.40;;;13.33;41.50;96662.56;5064317;28;20417;-47
2023/04/15 08:41:20;;;;;;;4.03;2.30;;;10.60;56.60;;;13.35;41.36;96663.19;5063229;28;20059;-45
2023/04/15 08:44:03;;;;;;;6.27;2.93;;;10.60;57.40;;;13.46;41.58;96667.13;5061339;28;20056;-45
2023/04/15 08:46:36;;;;;;;4.07;2.60;;;10.70;57.30;;;13.56;41.47;96668.38;5054452;28;20493;-44
2023/04/15 08:49:05;;;;;;;8.52;3.05;;;10.80;56.80;;;13.64;41.22;96672.69;5060927;28;20045;-49
2023/04/15 08:51:33;;;;;;;3.70;2.60;;;10.90;56.60;;;13.73;41.47;96665.31;5064871;28;20253;-44
2023/04/15 08:54:02;;;;;;;4.40;2.80;;;11.00;56.90;;;13.82;41.15;96669.41;5064012;28;20033;-44
2023/04/15 08:56:33;;;;;;;3.63;2.90;;;11.10;55.50;;;13.76;40.32;96672.91;5060146;28;20044;-45
2023/04/15 08:59:01;;;;;;;4.73;2.73;;;11.00;53.60;;;13.73;40.03;96676.81;5061656;28;20053;-44
2023/04/15 09:01:30;;;;;;;4.80;2.53;;;10.90;52.90;;;13.78;40.09;96669.03;5064670;28;20036;-48
2023/04/15 09:03:58;;;;;;;7.63;3.43;;;10.90;54.60;;;13.91;39.95;96670.03;5064085;28;20044;-45
2023/04/15 09:06:26;;;;;;;8.50;3.40;;;11.10;54.60;;;13.95;39.79;96663.25;5060939;28;20104;-45
2023/04/15 09:08:54;;;;;;;6.07;3.33;;;11.20;53.90;;;14.08;39.87;96676.63;5060984;28;20517;-45
2023/04/15 09:11:22;;;;;;;4.35;2.58;;;11.30;54.20;;;14.24;40.14;96675.38;5063741;28;20044;-46
2023/04/15 09:13:50;;;;;;;3.70;3.05;;;11.40;54.80;;;14.29;39.66;96675.56;5064240;28;20048;-45
2023/04/15 09:16:18;;;;;;;4.07;3.10;;;11.40;53.60;;;14.35;39.36;96677.41;5060136;28;20044;-44
2023/04/15 09:18:46;;;;;;;5.22;3.33;;;11.50;53.90;;;14.43;39.43;96681.72;5059762;28;20041;-46
2023/04/15 09:21:16;;;;;;;4.88;2.70;;;11.60;53.20;;;14.46;39.03;96685.84;5062200;28;20048;-45
2023/04/15 09:23:59;;;;;;;4.45;2.50;;;11.60;53.40;;;14.45;39.29;96693.06;5063833;28;20040;-46
2023/04/15 09:26:39;;;;;;;3.97;2.90;;;11.70;52.10;;;14.50;38.97;96689.75;5052741;28;20059;-45
2023/04/15 09:29:12;;;;;;;6.45;2.60;;;11.70;52.20;;;14.58;39.35;96694.91;5060214;28;20482;-48
2023/04/15 09:31:41;;;;;;;4.50;3.10;;;11.70;53.10;;;14.68;39.09;96697.16;5063327;28;20056;-45
2023/04/15 09:34:09;;;;;;;6.10;3.22;;;11.80;53.20;;;14.75;39.03;96693.44;5062152;28;20051;-46
2023/04/15 09:36:51;;;;;;;5.53;2.90;;;11.90;52.80;;;14.84;39.41;96703.91;5057640;28;20417;-46
2023/04/15 09:39:20;;;;;;;4.70;3.10;;;12.00;52.80;;;14.91;39.36;96702.84;5062006;28;20056;-49
2023/04/15 09:42:05;;;;;;;5.00;3.30;;;12.00;53.80;;;14.99;39.36;96693.75;5062657;28;20048;-45
2023/04/15 09:44:33;;;;;;;5.15;3.20;;;12.20;53.30;;;14.95;38.95;96705.94;5052751;28;20052;-49
2023/04/15 09:47:01;;;;;;;4.85;2.78;;;12.20;52.10;;;15.10;39.16;96702.97;5060017;28;20155;-45
2023/04/15 09:49:28;;;;;;;5.68;3.38;;;12.30;52.90;;;15.16;38.76;96707.50;5063172;28;20470;-46
2023/04/15 09:52:03;;;;;;;5.05;3.05;;;12.40;52.00;;;15.27;39.12;96700.63;5063566;28;20051;-45
2023/04/15 09:54:37;;;;;;;6.22;3.03;;;12.50;52.60;;;15.31;38.34;96705.34;5052351;28;20045;-46
2023/04/15 09:57:09;;;;;;;4.18;2.83;;;12.50;51.70;;;15.37;38.16;96698.31;5058176;28;20041;-47
2023/04/15 09:59:37;;;;;;;5.43;3.25;;;12.60;50.60;;;15.39;38.03;96701.59;5063706;28;20051;-46
2023/04/15 10:02:06;;;;;;;6.20;3.13;;;12.50;51.40;;;15.42;38.28;96700.38;5062749;28;20044;-46
2023/04/15 10:04:37;;;;;;;7.60;3.38;;;12.60;51.80;;;15.45;38.52;96702.59;5059479;28;20048;-46
2023/04/15 10:07:06;;;;;;;7.10;3.47;;;12.60;52.30;;;15.45;38.19;96702.59;5059763;28;20403;-46
2023/04/15 10:09:36;;;;;;;8.40;3.63;;;12.60;52.00;;;15.57;38.34;96700.91;5063174;28;20040;-44
2023/04/15 10:12:04;;;;;;;6.15;3.97;;;12.70;52.00;;;15.62;38.34;96710.97;5062718;28;20052;-46
2023/04/15 10:14:37;;;;;;;6.15;3.45;;;12.80;52.10;;;15.73;38.06;96713.00;5058039;28;20048;-46
2023/04/15 10:17:06;;;;;;;6.30;3.72;;;12.90;51.40;;;15.79;38.06;96704.06;5060062;28;20044;-45
2023/04/15 10:19:36;;;;;;;5.97;3.58;;;13.00;51.90;;;15.87;37.73;96706.50;5063396;28;20417;-45
2023/04/15 10:22:05;;;;;;;6.85;3.42;;;13.10;51.40;;;15.94;37.91;96707.28;5062473;28;20048;-44
2023/04/15 10:24:33;;;;;;;6.05;3.40;;;13.20;51.10;;;16.03;37.32;96704.31;5057897;28;20037;-48
2023/04/15 10:27:03;;;;;;;4.75;2.70;;;13.30;50.20;;;16.05;36.03;96708.44;5059618;28;20437;-46
2023/04/15 10:29:31;;;;;;;4.97;2.67;;;13.30;46.30;;;16.06;35.61;96704.69;5051591;28;20444;-44
2023/04/15 10:32:00;;;;;;;6.35;3.42;;;13.30;47.40;;;16.16;36.17;96717.63;5059140;28;20041;-43
2023/04/15 10:34:28;;;;;;;6.32;2.55;;;13.40;48.10;;;16.13;34.80;96710.03;5057756;28;20045;-47